Time;durP1;ratioP1;P1;durP2;ratioP2;P2;SDS_P1;SDS_P2;PMS_P1;PMS_P2;Temp;Humidity;BMP_temperature;BMP_pressure;BME280_temperature;BME280_humidity;BME280_pressure;Samples;Min_cycle;Max_cycle;Signal;HPM_P1;HPM_P2
2023/03/15 00:00:43;;;;;;;;;;;;;;;6.54;53.45;98838.78;5091428;28;20134;-41
2023/03/15 00:03:08;;;;;;;;;;;;;;;6.35;54.61;98840.38;5091483;28;19991;-41
2023/03/15 00:05:33;;;;;;;;;;;;;;;6.42;54.43;98837.75;5091110;28;19923;-41
2023/03/15 00:07:59;;;;;;;;;;;;;;;6.53;54.24;98829.25;5091216;28;19920;-41
2023/03/15 00:10:24;;;;;;;;;;;;;;;6.80;53.90;98829.31;5090997;28;20019;-41
2023/03/15 00:12:49;;;;;;;;;;;;;;;6.89;53.20;98836.00;5091219;28;19919;-41
2023/03/15 00:15:15;;;;;;;;;;;;;;;6.77;54.29;98835.00;5090986;28;19912;-42
2023/03/15 00:17:40;;;;;;;;;;;;;;;6.32;55.48;98837.28;5090824;28;19916;-42
2023/03/15 00:20:06;;;;;;;;;;;;;;;6.25;56.26;98826.72;5090877;28;19935;-42
2023/03/15 00:22:32;;;;;;;;;;;;;;;6.21;56.39;98828.13;5090932;28;19912;-41
2023/03/15 00:24:57;;;;;;;;;;;;;;;6.37;55.90;98827.75;5090764;28;19920;-41
2023/03/15 00:27:22;;;;;;;;;;;;;;;6.10;57.60;98821.56;5090712;28;20344;-41
2023/03/15 00:29:48;;;;;;;;;;;;;;;5.93;57.90;98820.25;5090877;28;19995;-41
2023/03/15 00:32:13;;;;;;;;;;;;;;;5.81;58.28;98817.34;5090999;28;20368;-41
2023/03/15 00:34:38;;;;;;;;;;;;;;;5.86;58.48;98813.13;5090861;28;20363;-42
2023/03/15 00:37:03;;;;;;;;;;;;;;;5.82;58.54;98817.13;5090687;28;19912;-42
2023/03/15 00:39:29;;;;;;;;;;;;;;;5.86;59.20;98817.56;5091087;28;20387;-41
2023/03/15 00:41:55;;;;;;;;;;;;;;;5.99;58.23;98814.22;5091157;28;20367;-42
2023/03/15 00:44:23;;;;;;;;;;;;;;;5.76;58.35;98807.34;5090788;28;19912;-41
2023/03/15 00:46:49;;;;;;;;;;;;;;;5.76;58.70;98803.91;5090346;28;19977;-41
2023/03/15 00:49:14;;;;;;;;;;;;;;;5.91;58.94;98801.16;5090744;28;19912;-41
2023/03/15 00:51:39;;;;;;;;;;;;;;;5.65;59.38;98798.19;5090854;28;20462;-40
2023/03/15 00:54:05;;;;;;;;;;;;;;;5.47;59.32;98798.66;5090527;28;19977;-42
2023/03/15 00:56:30;;;;;;;;;;;;;;;5.87;59.05;98798.88;5090675;28;19919;-41
2023/03/15 00:58:56;;;;;;;;;;;;;;;5.97;57.66;98795.91;5092648;28;19924;-42
2023/03/15 01:01:23;;;;;;;;;;;;;;;5.94;58.16;98803.38;5094706;28;19923;-41
2023/03/15 01:03:49;;;;;;;;;;;;;;;5.98;57.94;98794.91;5094554;28;19954;-41
2023/03/15 01:06:19;;;;;;;;;;;;;;;6.04;57.80;98794.13;5094368;28;20318;-42
2023/03/15 01:08:45;;;;;;;;;;;;;;;5.95;57.47;98789.19;5094340;28;19943;-42
2023/03/15 01:11:12;;;;;;;;;;;;;;;5.77;58.87;98779.97;5094241;28;19955;-42
2023/03/15 01:13:37;;;;;;;;;;;;;;;5.40;60.13;98776.69;5094176;28;19986;-41
2023/03/15 01:16:03;;;;;;;;;;;;;;;5.51;60.54;98772.72;5094166;28;19912;-41
2023/03/15 01:18:28;;;;;;;;;;;;;;;5.76;59.15;98780.97;5094147;28;19922;-41
2023/03/15 01:20:53;;;;;;;;;;;;;;;5.83;59.60;98773.09;5094027;28;20326;-41
2023/03/15 01:23:19;;;;;;;;;;;;;;;5.91;59.65;98782.66;5094118;28;20385;-41
2023/03/15 01:25:44;;;;;;;;;;;;;;;5.79;59.86;98777.13;5094249;28;19918;-41
2023/03/15 01:28:10;;;;;;;;;;;;;;;5.82;60.53;98784.63;5094264;28;20439;-41
2023/03/15 01:30:35;;;;;;;;;;;;;;;5.83;60.15;98789.72;5094144;28;19970;-42
2023/03/15 01:33:00;;;;;;;;;;;;;;;5.91;60.33;98777.38;5094143;28;19916;-42
2023/03/15 01:35:26;;;;;;;;;;;;;;;5.85;60.63;98776.34;5093958;28;19919;-41
2023/03/15 01:37:51;;;;;;;;;;;;;;;5.74;60.76;98769.78;5093906;28;19916;-41
2023/03/15 01:40:17;;;;;;;;;;;;;;;5.78;60.83;98770.22;5093612;28;19968;-41
2023/03/15 01:42:51;;;;;;;;;;;;;;;5.48;62.36;98768.66;5093399;28;19966;-42
2023/03/15 01:45:35;;;;;;;;;;;;;;;5.45;62.48;98763.75;5093726;28;19916;-41
2023/03/15 01:48:01;;;;;;;;;;;;;;;5.37;63.49;98763.91;5093562;28;19918;-42
2023/03/15 01:50:26;;;;;;;;;;;;;;;5.55;62.60;98760.75;5093569;28;20014;-41
2023/03/15 01:52:52;;;;;;;;;;;;;;;5.17;64.09;98758.47;5093392;28;19912;-41
2023/03/15 01:55:18;;;;;;;;;;;;;;;5.48;63.27;98770.44;5093813;28;19939;-41
2023/03/15 01:57:54;;;;;;;;;;;;;;;5.48;63.12;98768.66;5093647;28;19965;-41
2023/03/15 02:00:20;;;;;;;;;;;;;;;5.72;61.88;98771.00;5093743;28;19916;-42
2023/03/15 02:02:51;;;;;;;;;;;;;;;5.64;61.96;98779.88;5093636;28;19919;-41
2023/03/15 02:05:19;;;;;;;;;;;;;;;5.54;62.86;98771.50;5093926;28;19912;-42
2023/03/15 02:07:48;;;;;;;;;;;;;;;5.27;63.44;98763.41;5093807;28;19918;-41
2023/03/15 02:10:14;;;;;;;;;;;;;;;5.44;63.60;98756.00;5093039;28;19912;-41
2023/03/15 02:12:44;;;;;;;;;;;;;;;5.59;63.30;98758.53;5093084;28;19999;-41
2023/03/15 02:15:10;;;;;;;;;;;;;;;5.77;62.60;98756.19;5093722;28;19922;-42
2023/03/15 02:17:43;;;;;;;;;;;;;;;5.54;62.96;98753.03;5093070;28;20477;-41
2023/03/15 02:20:26;;;;;;;;;;;;;;;5.58;62.89;98759.53;5093304;28;19912;-41
2023/03/15 02:23:02;;;;;;;;;;;;;;;5.49;63.08;98751.78;5093317;28;20002;-42
2023/03/15 02:25:30;;;;;;;;;;;;;;;5.81;62.24;98741.59;5093325;28;19920;-40
2023/03/15 02:27:56;;;;;;;;;;;;;;;5.84;61.96;98741.19;5093319;28;19912;-41
2023/03/15 02:30:21;;;;;;;;;;;;;;;5.55;62.69;98746.75;5093491;28;19919;-40
2023/03/15 02:32:47;;;;;;;;;;;;;;;5.33;63.21;98751.28;5093242;28;19934;-41
2023/03/15 02:35:21;;;;;;;;;;;;;;;5.46;63.13;98741.63;5093319;28;19916;-41
2023/03/15 02:37:46;;;;;;;;;;;;;;;5.55;63.49;98747.56;5093459;28;19916;-40
2023/03/15 02:40:16;;;;;;;;;;;;;;;5.82;62.20;98748.47;5093238;28;20330;-42
2023/03/15 02:42:42;;;;;;;;;;;;;;;5.80;62.39;98734.66;5093176;28;20364;-41
2023/03/15 02:45:07;;;;;;;;;;;;;;;5.61;62.83;98743.31;5093315;28;19976;-40
2023/03/15 02:47:33;;;;;;;;;;;;;;;5.55;63.48;98744.09;5092908;28;19915;-41
2023/03/15 02:49:58;;;;;;;;;;;;;;;5.27;63.94;98747.59;5093221;28;20360;-40
2023/03/15 02:52:24;;;;;;;;;;;;;;;5.41;63.46;98743.22;5093145;28;20379;-41
2023/03/15 02:54:49;;;;;;;;;;;;;;;5.36;63.40;98735.88;5093038;28;19912;-41
2023/03/15 02:57:15;;;;;;;;;;;;;;;5.20;64.61;98733.56;5092536;28;20395;-42
2023/03/15 02:59:41;;;;;;;;;;;;;;;5.13;65.59;98735.34;5092826;28;20308;-42
2023/03/15 03:02:08;;;;;;;;;;;;;;;5.02;65.88;98732.19;5092680;28;19912;-42
2023/03/15 03:04:33;;;;;;;;;;;;;;;4.61;67.67;98726.84;5092652;28;19938;-42
2023/03/15 03:06:58;;;;;;;;;;;;;;;4.75;67.34;98725.13;5092591;28;20364;-41
2023/03/15 03:09:24;;;;;;;;;;;;;;;4.64;67.98;98729.88;5092750;28;20021;-40
2023/03/15 03:11:49;;;;;;;;;;;;;;;4.38;69.37;98724.38;5092668;28;19999;-41
2023/03/15 03:14:14;;;;;;;;;;;;;;;4.30;69.63;98727.94;5092697;28;19988;-40
2023/03/15 03:16:41;;;;;;;;;;;;;;;4.22;70.23;98728.06;5092146;28;20373;-42
2023/03/15 03:19:06;;;;;;;;;;;;;;;4.27;70.32;98717.81;5092435;28;20006;-42
2023/03/15 03:21:32;;;;;;;;;;;;;;;4.49;69.98;98718.59;5091783;28;19963;-42
2023/03/15 03:23:57;;;;;;;;;;;;;;;4.19;70.95;98715.28;5092280;28;19928;-40
2023/03/15 03:26:26;;;;;;;;;;;;;;;4.25;71.21;98704.81;5098054;28;20006;-42
2023/03/15 03:28:52;;;;;;;;;;;;;;;4.37;70.88;98712.22;5093364;28;20288;-41
2023/03/15 03:31:19;;;;;;;;;;;;;;;4.04;71.68;98713.50;5107309;28;20418;-41
2023/03/15 03:33:45;;;;;;;;;;;;;;;4.22;71.34;98718.34;5112374;28;20379;-40
2023/03/15 03:36:11;;;;;;;;;;;;;;;4.38;71.19;98711.19;5105042;28;19995;-41
2023/03/15 03:38:40;;;;;;;;;;;;;;;4.03;71.81;98719.78;5078842;28;19956;-42
2023/03/15 03:41:06;;;;;;;;;;;;;;;3.95;72.56;98708.56;5071790;28;19920;-41
2023/03/15 03:43:32;;;;;;;;;;;;;;;3.95;72.47;98711.19;5071776;28;19912;-41
2023/03/15 03:45:57;;;;;;;;;;;;;;;4.03;72.78;98709.25;5073045;28;19916;-42
2023/03/15 03:48:22;;;;;;;;;;;;;;;4.15;71.88;98706.94;5091942;28;20329;-42
2023/03/15 03:50:47;;;;;;;;;;;;;;;4.29;71.56;98697.34;5091719;28;19913;-41
2023/03/15 03:53:13;;;;;;;;;;;;;;;4.02;72.09;98707.63;5091807;28;20446;-42
2023/03/15 03:55:38;;;;;;;;;;;;;;;4.00;72.48;98696.47;5091192;28;19919;-42
2023/03/15 03:58:03;;;;;;;;;;;;;;;3.87;72.91;98701.59;5091757;28;19931;-41
2023/03/15 04:00:29;;;;;;;;;;;;;;;3.68;73.53;98711.69;5091915;28;19912;-42
2023/03/15 04:02:54;;;;;;;;;;;;;;;3.57;73.71;98709.53;5091702;28;19964;-42
2023/03/15 04:05:20;;;;;;;;;;;;;;;3.92;73.14;98712.34;5091809;28;19912;-42
2023/03/15 04:07:45;;;;;;;;;;;;;;;4.14;72.67;98715.03;5091828;28;19912;-41
2023/03/15 04:10:13;;;;;;;;;;;;;;;4.26;71.83;98706.44;5091840;28;19911;-42
2023/03/15 04:12:42;;;;;;;;;;;;;;;4.33;71.10;98708.34;5089882;28;19932;-41
2023/03/15 04:15:08;;;;;;;;;;;;;;;4.45;70.99;98702.34;5090436;28;19919;-42
2023/03/15 04:17:33;;;;;;;;;;;;;;;4.28;71.80;98698.34;5090841;28;19981;-42
2023/03/15 04:20:00;;;;;;;;;;;;;;;3.94;72.55;98713.00;5091157;28;19919;-42
2023/03/15 04:22:26;;;;;;;;;;;;;;;4.11;72.51;98716.19;5090988;28;19920;-43
2023/03/15 04:24:51;;;;;;;;;;;;;;;4.15;72.53;98703.47;5091164;28;19973;-42
2023/03/15 04:27:16;;;;;;;;;;;;;;;3.99;72.61;98688.75;5091432;28;19955;-41
2023/03/15 04:29:42;;;;;;;;;;;;;;;3.85;73.20;98643.88;5090806;28;19958;-41
2023/03/15 04:32:08;;;;;;;;;;;;;;;4.01;72.46;98678.84;5092382;28;19958;-41
2023/03/15 04:34:37;;;;;;;;;;;;;;;4.03;72.08;98682.09;5095636;28;19927;-42
2023/03/15 04:37:03;;;;;;;;;;;;;;;3.86;73.38;98689.41;5095732;28;19912;-41
2023/03/15 04:39:29;;;;;;;;;;;;;;;3.69;74.25;98692.28;5095379;28;19919;-42
2023/03/15 04:41:54;;;;;;;;;;;;;;;3.96;72.99;98700.47;5094768;28;19912;-42
2023/03/15 04:44:19;;;;;;;;;;;;;;;4.26;72.62;98703.00;5095324;28;20007;-42
2023/03/15 04:46:45;;;;;;;;;;;;;;;4.15;72.28;98703.47;5095027;28;20036;-42
2023/03/15 04:49:10;;;;;;;;;;;;;;;3.99;72.72;98704.53;5094616;28;19934;-41
2023/03/15 04:51:35;;;;;;;;;;;;;;;4.02;72.45;98705.00;5094533;28;19912;-40
2023/03/15 04:54:01;;;;;;;;;;;;;;;3.98;73.13;98700.25;5094951;28;20096;-41
2023/03/15 04:56:27;;;;;;;;;;;;;;;3.82;73.85;98698.69;5095232;28;19912;-41
2023/03/15 04:58:53;;;;;;;;;;;;;;;4.12;72.61;98694.16;5095092;28;19927;-41
2023/03/15 05:01:18;;;;;;;;;;;;;;;4.08;73.01;98703.44;5095114;28;19912;-41
2023/03/15 05:03:44;;;;;;;;;;;;;;;4.20;72.30;98709.81;5095075;28;19912;-41
2023/03/15 05:06:09;;;;;;;;;;;;;;;4.22;72.27;98715.72;5095024;28;19917;-41
2023/03/15 05:08:37;;;;;;;;;;;;;;;4.21;72.28;98702.75;5094905;28;20390;-40
2023/03/15 05:11:03;;;;;;;;;;;;;;;3.83;73.23;98705.59;5095138;28;20054;-40
2023/03/15 05:13:29;;;;;;;;;;;;;;;4.17;72.89;98701.47;5095167;28;19930;-41
2023/03/15 05:15:54;;;;;;;;;;;;;;;3.80;73.88;98711.22;5095024;28;19912;-41
2023/03/15 05:18:20;;;;;;;;;;;;;;;3.98;72.82;98713.44;5094766;28;19916;-42
2023/03/15 05:20:46;;;;;;;;;;;;;;;4.17;72.55;98720.75;5095405;28;19970;-42
2023/03/15 05:23:12;;;;;;;;;;;;;;;3.85;73.34;98708.84;5094876;28;20360;-42
2023/03/15 05:25:37;;;;;;;;;;;;;;;4.14;72.94;98707.13;5095186;28;19912;-42
2023/03/15 05:28:03;;;;;;;;;;;;;;;4.08;73.24;98720.03;5094817;28;19939;-42
2023/03/15 05:30:29;;;;;;;;;;;;;;;3.70;74.43;98717.59;5093968;28;20287;-42
2023/03/15 05:32:55;;;;;;;;;;;;;;;3.91;76.09;98716.00;5094360;28;19912;-42
2023/03/15 05:35:21;;;;;;;;;;;;;;;7.19;91.91;98717.38;5094702;28;19919;-40
2023/03/15 05:37:46;;;;;;;;;;;;;;;7.66;62.24;98706.66;5094248;28;20275;-41
2023/03/15 05:40:11;;;;;;;;;;;;;;;6.77;62.41;98708.88;5094499;28;19995;-42
2023/03/15 05:42:37;;;;;;;;;;;;;;;5.75;65.98;98710.69;5094486;28;19912;-42
2023/03/15 05:45:02;;;;;;;;;;;;;;;5.35;67.41;98705.25;5093257;28;19956;-41
2023/03/15 05:47:27;;;;;;;;;;;;;;;4.83;69.16;98698.59;5093751;28;19912;-41
2023/03/15 05:49:53;;;;;;;;;;;;;;;4.73;70.52;98696.31;5094458;28;19912;-42
2023/03/15 05:52:18;;;;;;;;;;;;;;;4.55;70.99;98701.22;5093518;28;19999;-42
2023/03/15 05:54:43;;;;;;;;;;;;;;;4.33;72.17;98695.97;5092869;28;19934;-41
2023/03/15 05:57:09;;;;;;;;;;;;;;;4.38;71.80;98698.03;5093068;28;19919;-40
2023/03/15 05:59:34;;;;;;;;;;;;;;;4.39;71.76;98691.78;5093439;28;19948;-42
2023/03/15 06:01:59;;;;;;;;;;;;;;;4.46;71.72;98696.09;5093665;28;20345;-43
2023/03/15 06:04:25;;;;;;;;;;;;;;;4.10;72.86;98696.16;5093692;28;19919;-43
2023/03/15 06:06:51;;;;;;;;;;;;;;;4.13;73.39;98703.66;5093757;28;19951;-42
2023/03/15 06:09:16;;;;;;;;;;;;;;;4.18;73.12;98706.56;5093965;28;20374;-42
2023/03/15 06:11:41;;;;;;;;;;;;;;;4.38;72.64;98713.84;5094269;28;19916;-42
2023/03/15 06:14:06;;;;;;;;;;;;;;;4.69;72.03;98703.78;5093729;28;20003;-42
2023/03/15 06:16:32;;;;;;;;;;;;;;;4.94;70.76;98708.63;5093636;28;19919;-41
2023/03/15 06:18:57;;;;;;;;;;;;;;;4.87;70.35;98710.41;5093386;28;19942;-42
2023/03/15 06:21:22;;;;;;;;;;;;;;;5.20;69.00;98701.91;5093306;28;19920;-41
2023/03/15 06:23:48;;;;;;;;;;;;;;;5.02;69.49;98712.94;5093010;28;20015;-42
2023/03/15 06:26:14;;;;;;;;;;;;;;;5.18;68.11;98717.94;5093682;28;19916;-42
2023/03/15 06:28:39;;;;;;;;;;;;;;;5.23;68.07;98712.88;5093648;28;19912;-42
2023/03/15 06:31:08;;;;;;;;;;;;;;;5.22;68.23;98711.25;5093230;28;20371;-41
2023/03/15 06:33:34;;;;;;;;;;;;;;;4.90;69.81;98704.75;5093547;28;20002;-41
2023/03/15 06:35:59;;;;;;;;;;;;;;;4.94;69.43;98703.34;5093181;28;20443;-42
2023/03/15 06:38:24;;;;;;;;;;;;;;;5.47;67.88;98703.66;5093101;28;19916;-42
2023/03/15 06:40:49;;;;;;;;;;;;;;;5.18;68.20;98710.00;5093329;28;20391;-43
2023/03/15 06:43:18;;;;;;;;;;;;;;;5.46;68.45;98706.50;5093509;28;20007;-43
2023/03/15 06:45:46;;;;;;;;;;;;;;;5.80;66.83;98702.19;5093785;28;19916;-42
2023/03/15 06:48:12;;;;;;;;;;;;;;;6.23;65.66;98708.00;5093148;28;20055;-42
2023/03/15 06:50:38;;;;;;;;;;;;;;;6.67;63.80;98705.81;5093482;28;20428;-44
2023/03/15 06:53:03;;;;;;;;;;;;;;;6.98;63.48;98710.47;5093422;28;19975;-42
2023/03/15 06:55:28;;;;;;;;;;;;;;;6.79;63.03;98712.13;5093016;28;19913;-41
2023/03/15 06:57:53;;;;;;;;;;;;;;;6.34;63.70;98701.34;5092950;28;19923;-41
2023/03/15 07:00:19;;;;;;;;;;;;;;;6.97;62.64;98698.28;5093182;28;19912;-42
2023/03/15 07:02:44;;;;;;;;;;;;;;;7.34;61.37;98697.81;5092901;28;20062;-42
2023/03/15 07:05:10;;;;;;;;;;;;;;;7.85;61.03;98702.31;5092796;28;19916;-43
2023/03/15 07:07:35;;;;;;;;;;;;;;;8.44;58.10;98697.72;5092931;28;19912;-42
2023/03/15 07:10:00;;;;;;;;;;;;;;;8.09;58.47;98695.47;5092847;28;19915;-42
2023/03/15 07:12:26;;;;;;;;;;;;;;;8.65;56.93;98691.22;5092914;28;19912;-42
2023/03/15 07:14:51;;;;;;;;;;;;;;;8.93;56.96;98689.97;5092721;28;19912;-42
2023/03/15 07:17:16;;;;;;;;;;;;;;;8.42;56.77;98694.47;5092612;28;19919;-41
2023/03/15 07:19:41;;;;;;;;;;;;;;;8.15;57.46;98694.59;5092691;28;19918;-43
2023/03/15 07:22:07;;;;;;;;;;;;;;;8.30;57.35;98698.78;5093075;28;19918;-43
2023/03/15 07:24:32;;;;;;;;;;;;;;;8.22;57.23;98686.59;5092530;28;20006;-44
2023/03/15 07:26:57;;;;;;;;;;;;;;;8.30;58.19;98690.84;5092739;28;19916;-42
2023/03/15 07:29:23;;;;;;;;;;;;;;;8.88;55.65;98692.47;5092640;28;19916;-42
2023/03/15 07:31:48;;;;;;;;;;;;;;;9.38;55.05;98692.38;5092371;28;19996;-42
2023/03/15 07:34:14;;;;;;;;;;;;;;;9.37;54.37;98691.56;5092417;28;19912;-42
2023/03/15 07:36:39;;;;;;;;;;;;;;;9.03;55.31;98686.81;5092036;28;19912;-43
2023/03/15 07:39:04;;;;;;;;;;;;;;;9.09;55.68;98677.97;5092185;28;19923;-43
2023/03/15 07:41:30;;;;;;;;;;;;;;;10.51;51.76;98676.81;5092106;28;19916;-41
2023/03/15 07:43:55;;;;;;;;;;;;;;;10.00;52.58;98683.47;5092102;28;19920;-42
2023/03/15 07:46:21;;;;;;;;;;;;;;;10.00;52.39;98678.94;5092463;28;19912;-42
2023/03/15 07:48:46;;;;;;;;;;;;;;;9.77;60.28;98680.47;5091925;28;19912;-42
2023/03/15 07:51:11;;;;;;;;;;;;;;;10.49;55.21;98676.22;5091687;28;19925;-42
2023/03/15 07:53:37;;;;;;;;;;;;;;;10.80;50.26;98674.31;5092225;28;19962;-42
2023/03/15 07:56:03;;;;;;;;;;;;;;;11.45;49.57;98668.78;5091945;28;19912;-42
2023/03/15 07:58:28;;;;;;;;;;;;;;;11.78;47.68;98677.16;5092429;28;19916;-42
2023/03/15 08:00:57;;;;;;;;;;;;;;;11.94;47.62;98671.13;5092091;28;19916;-42
2023/03/15 08:03:23;;;;;;;;;;;;;;;12.25;46.18;98674.31;5091707;28;19919;-42
2023/03/15 08:05:49;;;;;;;;;;;;;;;12.09;46.68;98674.06;5091803;28;19919;-42
2023/03/15 08:08:14;;;;;;;;;;;;;;;11.13;48.49;98671.84;5090390;28;20190;-42
2023/03/15 08:10:39;;;;;;;;;;;;;;;10.59;49.34;98673.81;5091058;28;19912;-42
2023/03/15 08:13:05;;;;;;;;;;;;;;;10.04;50.74;98658.06;5091249;28;20300;-42
2023/03/15 08:15:30;;;;;;;;;;;;;;;10.50;50.09;98645.94;5091405;28;19919;-42
2023/03/15 08:17:55;;;;;;;;;;;;;;;10.70;49.71;98630.44;5091057;28;20318;-42
2023/03/15 08:20:21;;;;;;;;;;;;;;;10.78;50.09;98631.16;5091448;28;19919;-43
2023/03/15 08:22:47;;;;;;;;;;;;;;;10.57;50.22;98622.69;5091542;28;19929;-43
2023/03/15 08:25:14;;;;;;;;;;;;;;;11.20;49.64;98617.69;5091264;28;19916;-43
2023/03/15 08:27:40;;;;;;;;;;;;;;;11.71;47.75;98616.81;5091188;28;19912;-41
2023/03/15 08:30:06;;;;;;;;;;;;;;;11.94;47.86;98609.78;5091162;28;19912;-43
2023/03/15 08:32:31;;;;;;;;;;;;;;;12.15;46.74;98604.78;5091222;28;19912;-42
2023/03/15 08:34:57;;;;;;;;;;;;;;;11.98;46.71;98599.47;5091226;28;20022;-43
2023/03/15 08:37:22;;;;;;;;;;;;;;;12.36;45.71;98595.28;5090647;28;19912;-44
2023/03/15 08:39:48;;;;;;;;;;;;;;;12.42;45.75;98597.78;5091083;28;19919;-43
2023/03/15 08:42:13;;;;;;;;;;;;;;;12.05;45.56;98600.94;5091349;28;19916;-44
2023/03/15 08:44:38;;;;;;;;;;;;;;;12.43;45.43;98598.56;5091227;28;19912;-42
2023/03/15 08:47:04;;;;;;;;;;;;;;;13.59;43.83;98602.28;5090843;28;19912;-42
2023/03/15 08:49:29;;;;;;;;;;;;;;;12.80;45.28;98603.41;5090764;28;20293;-43
2023/03/15 08:51:54;;;;;;;;;;;;;;;13.04;43.84;98606.66;5091172;28;20309;-42
2023/03/15 08:54:20;;;;;;;;;;;;;;;12.82;43.24;98604.78;5090779;28;19912;-43
2023/03/15 08:56:45;;;;;;;;;;;;;;;12.78;43.92;98605.53;5090920;28;19915;-45
2023/03/15 08:59:10;;;;;;;;;;;;;;;12.79;43.89;98609.78;5090760;28;19917;-43
2023/03/15 09:01:38;;;;;;;;;;;;;;;13.95;42.49;98606.13;5090905;28;19912;-43
2023/03/15 09:04:04;;;;;;;;;;;;;;;13.41;42.08;98608.75;5090923;28;20319;-43
2023/03/15 09:06:30;;;;;;;;;;;;;;;13.76;41.88;98597.63;5090946;28;19913;-43
2023/03/15 09:08:55;;;;;;;;;;;;;;;14.27;40.24;98595.44;5091158;28;19916;-42
2023/03/15 09:11:21;;;;;;;;;;;;;;;14.92;38.72;98590.00;5090853;28;19992;-43
2023/03/15 09:13:46;;;;;;;;;;;;;;;14.30;39.59;98580.75;5090729;28;19919;-44
2023/03/15 09:16:11;;;;;;;;;;;;;;;15.09;38.64;98573.75;5090777;28;19942;-42
2023/03/15 09:18:39;;;;;;;;;;;;;;;15.98;37.13;98566.50;5090627;28;19916;-43
2023/03/15 09:21:04;;;;;;;;;;;;;;;15.32;38.22;98569.00;5094687;28;19939;-42
2023/03/15 09:23:30;;;;;;;;;;;;;;;13.95;40.82;98576.69;5094212;28;20320;-42
2023/03/15 09:25:55;;;;;;;;;;;;;;;15.14;39.35;98563.06;5094497;28;19920;-43
2023/03/15 09:28:20;;;;;;;;;;;;;;;14.99;38.13;98560.31;5094322;28;19912;-42
2023/03/15 09:30:45;;;;;;;;;;;;;;;15.26;37.82;98570.88;5093846;28;20383;-42
2023/03/15 09:33:13;;;;;;;;;;;;;;;15.10;38.69;98559.28;5094029;28;19912;-44
2023/03/15 09:35:38;;;;;;;;;;;;;;;16.29;36.66;98557.66;5093946;28;19919;-43
2023/03/15 09:38:04;;;;;;;;;;;;;;;15.50;36.25;98565.03;5093806;28;19916;-44
2023/03/15 09:40:33;;;;;;;;;;;;;;;15.44;37.29;98561.56;5093678;28;19919;-41
2023/03/15 09:43:10;;;;;;;;;;;;;;;14.13;39.97;98561.34;5093492;28;20003;-41
2023/03/15 09:45:54;;;;;;;;;;;;;;;15.24;37.58;98559.59;5094030;28;20015;-42
2023/03/15 09:48:34;;;;;;;;;;;;;;;16.19;35.30;98553.09;5093866;28;19961;-42
2023/03/15 09:51:25;;;;;;;;;;;;;;;16.76;35.16;98543.88;5093724;28;19916;-43
2023/03/15 09:53:59;;;;;;;;;;;;;;;17.11;34.50;98550.22;5093863;28;19919;-42
2023/03/15 09:57:03;;;;;;;;;;;;;;;17.81;34.06;98543.13;5093651;28;20020;-42
2023/03/15 09:59:40;;;;;;;;;;;;;;;17.69;34.01;98535.41;5050756;28;20010;-42
2023/03/15 10:02:23;;;;;;;;;;;;;;;18.18;33.42;98539.88;5051479;28;19913;-43
2023/03/15 10:04:50;;;;;;;;;;;;;;;17.20;34.28;98537.03;5079292;28;19912;-43
2023/03/15 10:07:15;;;;;;;;;;;;;;;17.55;33.82;98522.59;5093909;28;20303;-44
2023/03/15 10:09:41;;;;;;;;;;;;;;;17.78;33.28;98525.63;5093710;28;19912;-43
2023/03/15 10:12:22;;;;;;;;;;;;;;;17.72;33.10;98519.50;5093483;28;19912;-42
2023/03/15 10:14:53;;;;;;;;;;;;;;;17.62;33.17;98516.88;5093449;28;19912;-42
2023/03/15 10:17:37;;;;;;;;;;;;;;;17.85;33.05;98512.72;5093565;28;19916;-42
2023/03/15 10:20:10;;;;;;;;;;;;;;;17.00;33.83;98521.78;5093494;28;19912;-42
2023/03/15 10:22:36;;;;;;;;;;;;;;;16.67;34.58;98525.91;5093380;28;19931;-42
2023/03/15 10:25:01;;;;;;;;;;;;;;;16.72;34.74;98523.22;5093477;28;19916;-42
2023/03/15 10:27:30;;;;;;;;;;;;;;;17.07;33.64;98516.91;5093120;28;19912;-41
2023/03/15 10:29:57;;;;;;;;;;;;;;;17.06;33.77;98520.69;5092828;28;19912;-43
2023/03/15 10:32:26;;;;;;;;;;;;;;;16.92;33.69;98517.78;5093126;28;19919;-43
2023/03/15 10:34:53;;;;;;;;;;;;;;;16.61;34.63;98517.84;5093420;28;19918;-43
2023/03/15 10:37:19;;;;;;;;;;;;;;;16.67;34.24;98515.94;5092807;28;19919;-43
2023/03/15 10:39:47;;;;;;;;;;;;;;;17.26;33.93;98510.91;5092503;28;19916;-42
2023/03/15 10:42:23;;;;;;;;;;;;;;;17.53;33.01;98500.53;5091442;28;19916;-44
2023/03/15 10:44:48;;;;;;;;;;;;;;;17.96;32.51;98498.09;5093068;28;19977;-44
2023/03/15 10:47:18;;;;;;;;;;;;;;;18.42;31.69;98485.28;5093084;28;20281;-42
2023/03/15 10:49:44;;;;;;;;;;;;;;;18.75;31.06;98487.06;5092698;28;19918;-44
2023/03/15 10:52:30;;;;;;;;;;;;;;;19.28;30.03;98488.84;5092822;28;19951;-43
2023/03/15 10:54:56;;;;;;;;;;;;;;;18.93;30.14;98487.44;5085312;28;19947;-44
2023/03/15 10:57:24;;;;;;;;;;;;;;;18.92;30.10;98483.13;5092690;28;19983;-43
2023/03/15 10:59:56;;;;;;;;;;;;;;;19.04;30.12;98483.50;5092649;28;19912;-43
2023/03/15 11:02:23;;;;;;;;;;;;;;;19.11;29.39;98486.66;5092578;28;19912;-43
2023/03/15 11:05:07;;;;;;;;;;;;;;;19.34;29.29;98470.69;5092524;28;19923;-43
2023/03/15 11:07:35;;;;;;;;;;;;;;;19.51;29.36;98476.38;5092227;28;20374;-45
2023/03/15 11:10:03;;;;;;;;;;;;;;;19.41;29.78;98473.81;5092594;28;19912;-44
2023/03/15 11:12:32;;;;;;;;;;;;;;;18.15;31.09;98475.84;5092579;28;19912;-44
2023/03/15 11:15:00;;;;;;;;;;;;;;;18.34;30.69;98482.13;5092543;28;19912;-43
2023/03/15 11:17:28;;;;;;;;;;;;;;;18.72;30.50;98486.84;5092206;28;20265;-44
2023/03/15 11:19:58;;;;;;;;;;;;;;;17.97;31.46;98478.19;5092179;28;19934;-43
2023/03/15 11:22:23;;;;;;;;;;;;;;;18.06;31.38;98478.34;5092219;28;19912;-42
2023/03/15 11:24:49;;;;;;;;;;;;;;;18.57;30.63;98479.72;5091908;28;19985;-42
2023/03/15 11:27:16;;;;;;;;;;;;;;;18.82;30.33;98475.97;5092327;28;19943;-44
2023/03/15 11:29:50;;;;;;;;;;;;;;;19.07;29.60;98466.75;5092337;28;19916;-43
2023/03/15 11:32:25;;;;;;;;;;;;;;;19.45;29.16;98471.34;5092477;28;19942;-43
2023/03/15 11:35:09;;;;;;;;;;;;;;;19.29;29.26;98458.09;5091798;28;19911;-43
2023/03/15 11:37:43;;;;;;;;;;;;;;;19.72;28.36;98465.28;5091884;28;19916;-43
2023/03/15 11:40:15;;;;;;;;;;;;;;;19.85;28.11;98463.72;5091703;28;19912;-42
2023/03/15 11:42:43;;;;;;;;;;;;;;;19.13;29.12;98462.09;5090946;28;19919;-44
2023/03/15 11:45:14;;;;;;;;;;;;;;;18.53;30.15;98462.53;5091893;28;19994;-46
2023/03/15 11:47:40;;;;;;;;;;;;;;;18.15;30.93;98449.72;5092085;28;19912;-43
2023/03/15 11:50:05;;;;;;;;;;;;;;;18.49;30.67;98448.03;5091757;28;20345;-44
2023/03/15 11:52:31;;;;;;;;;;;;;;;18.95;30.04;98458.28;5090602;28;19916;-43
2023/03/15 11:54:57;;;;;;;;;;;;;;;17.82;31.42;98443.28;5091672;28;19912;-43
2023/03/15 11:57:29;;;;;;;;;;;;;;;18.11;31.21;98429.06;5091546;28;20014;-44
2023/03/15 12:00:14;;;;;;;;;;;;;;;18.56;30.77;98426.94;5091209;28;19916;-42
2023/03/15 12:02:50;;;;;;;;;;;;;;;18.50;30.98;98428.09;5090091;28;20303;-44
2023/03/15 12:05:34;;;;;;;;;;;;;;;18.69;30.49;98428.94;5091666;28;20322;-45
2023/03/15 12:08:15;;;;;;;;;;;;;;;17.96;31.71;98427.31;5091511;28;19958;-43
2023/03/15 12:10:45;;;;;;;;;;;;;;;17.57;32.79;98437.03;5091560;28;19912;-43
2023/03/15 12:13:22;;;;;;;;;;;;;;;17.57;32.56;98423.59;5091144;28;19931;-43
2023/03/15 12:15:48;;;;;;;;;;;;;;;17.15;33.07;98422.28;5091090;28;20321;-43
2023/03/15 12:18:15;;;;;;;;;;;;;;;16.67;34.25;98424.63;5090990;28;19932;-43
2023/03/15 12:20:45;;;;;;;;;;;;;;;16.74;34.38;98417.09;5091082;28;19912;-42
2023/03/15 12:23:10;;;;;;;;;;;;;;;16.91;34.78;98426.72;5090744;28;19946;-43
2023/03/15 12:25:37;;;;;;;;;;;;;;;16.43;35.10;98419.09;5089996;28;19923;-43
2023/03/15 12:28:09;;;;;;;;;;;;;;;16.31;35.45;98416.72;5091091;28;20401;-43
2023/03/15 12:30:39;;;;;;;;;;;;;;;17.14;34.02;98420.66;5091274;28;20003;-43
2023/03/15 12:33:12;;;;;;;;;;;;;;;17.09;34.05;98422.56;5090932;28;20068;-43
2023/03/15 12:35:39;;;;;;;;;;;;;;;17.14;34.20;98415.28;5090990;28;19934;-43
2023/03/15 12:38:09;;;;;;;;;;;;;;;16.81;34.54;98403.34;5090920;28;19927;-42
2023/03/15 12:40:39;;;;;;;;;;;;;;;16.64;35.19;98402.91;5090578;28;19917;-43
2023/03/15 12:43:05;;;;;;;;;;;;;;;16.81;34.67;98403.34;5091006;28;19912;-42
2023/03/15 12:45:33;;;;;;;;;;;;;;;17.20;34.00;98395.34;5091170;28;20415;-42
2023/03/15 12:47:58;;;;;;;;;;;;;;;17.51;33.43;98388.94;5091057;28;20000;-43
2023/03/15 12:50:42;;;;;;;;;;;;;;;17.61;33.26;98388.03;5090753;28;20409;-42
2023/03/15 12:53:18;;;;;;;;;;;;;;;17.30;33.42;98389.09;5091743;28;20375;-44